Time;durP1;ratioP1;P1;durP2;ratioP2;P2;SDS_P1;SDS_P2;PMS_P1;PMS_P2;Temp;Humidity;BMP_temperature;BMP_pressure;BME280_temperature;BME280_humidity;BME280_pressure;Samples;Min_cycle;Max_cycle;Signal;HPM_P1;HPM_P2
2022/03/16 00:01:08;;;;;;;24.35;8.75;;;7.50;99.90;;;;;;5027568;28;20030;-73
2022/03/16 00:03:34;;;;;;;18.85;8.38;;;7.50;99.90;;;;;;5027471;28;20029;-71
2022/03/16 00:05:59;;;;;;;28.30;10.82;;;7.50;99.90;;;;;;5026909;28;20033;-69
2022/03/16 00:08:28;;;;;;;27.52;9.50;;;7.50;99.90;;;;;;5027334;28;20022;-72
2022/03/16 00:10:55;;;;;;;18.95;8.95;;;7.50;99.90;;;;;;5026973;28;20042;-70
2022/03/16 00:13:20;;;;;;;21.08;9.07;;;7.50;99.90;;;;;;5026852;28;20483;-70
2022/03/16 00:15:46;;;;;;;24.98;9.25;;;7.50;99.90;;;;;;5027393;28;20030;-71
2022/03/16 00:18:13;;;;;;;26.05;9.70;;;7.50;99.90;;;;;;5027085;28;20030;-73
2022/03/16 00:20:39;;;;;;;25.73;9.95;;;7.50;99.90;;;;;;5035735;28;20117;-71
2022/03/16 00:23:05;;;;;;;28.20;9.50;;;7.50;99.90;;;;;;5025733;28;20030;-70
2022/03/16 00:25:30;;;;;;;29.52;9.90;;;7.40;99.90;;;;;;5026777;28;20025;-70
2022/03/16 00:27:56;;;;;;;19.73;9.02;;;7.40;99.90;;;;;;5024884;28;20033;-71
2022/03/16 00:30:21;;;;;;;25.33;8.75;;;7.40;99.90;;;;;;5026851;28;20131;-70
2022/03/16 00:32:47;;;;;;;22.55;9.25;;;7.40;99.90;;;;;;5026831;28;20060;-71
2022/03/16 00:35:12;;;;;;;25.77;10.32;;;7.40;99.90;;;;;;5026405;28;20029;-70
2022/03/16 00:37:39;;;;;;;24.65;9.18;;;7.40;99.90;;;;;;5026987;28;20026;-75
2022/03/16 00:40:06;;;;;;;21.00;9.90;;;7.40;99.90;;;;;;5026531;28;20026;-72
2022/03/16 00:42:31;;;;;;;21.27;8.52;;;7.40;99.90;;;;;;5029780;28;20420;-71
2022/03/16 00:44:57;;;;;;;22.27;9.77;;;7.40;99.90;;;;;;5045107;28;20057;-71
2022/03/16 00:47:22;;;;;;;18.45;8.52;;;7.40;99.90;;;;;;5028188;28;20025;-70
2022/03/16 00:49:48;;;;;;;21.38;7.90;;;7.40;99.90;;;;;;5046078;28;20034;-72
2022/03/16 00:52:14;;;;;;;20.88;8.00;;;7.40;99.90;;;;;;5046231;28;20390;-70
2022/03/16 00:54:40;;;;;;;29.63;8.93;;;7.50;99.90;;;;;;5045945;28;20113;-71
2022/03/16 00:57:05;;;;;;;20.55;9.65;;;7.40;99.90;;;;;;5046140;28;20029;-71
2022/03/16 00:59:31;;;;;;;18.35;8.95;;;7.40;99.90;;;;;;5046167;28;20035;-73
2022/03/16 01:01:57;;;;;;;21.02;8.10;;;7.40;99.90;;;;;;5045543;28;20036;-71
2022/03/16 01:04:23;;;;;;;19.67;8.50;;;7.40;99.90;;;;;;5045912;28;20026;-70
2022/03/16 01:06:49;;;;;;;19.13;7.95;;;7.40;99.90;;;;;;5045942;28;20022;-70
2022/03/16 01:09:15;;;;;;;20.23;8.30;;;7.30;99.90;;;;;;5045672;28;20026;-71
2022/03/16 01:11:41;;;;;;;20.40;7.95;;;7.30;99.90;;;;;;5045676;28;20041;-73
2022/03/16 01:14:07;;;;;;;19.77;7.95;;;7.40;99.90;;;;;;5028137;28;20035;-71
2022/03/16 01:16:35;;;;;;;18.20;8.75;;;7.30;99.90;;;;;;5045348;28;20038;-70
2022/03/16 01:19:01;;;;;;;25.48;9.98;;;7.30;99.90;;;;;;5045760;28;20059;-71
2022/03/16 01:21:26;;;;;;;22.98;8.82;;;7.30;99.90;;;;;;5045630;28;20068;-71
2022/03/16 01:23:52;;;;;;;22.40;9.75;;;7.20;99.90;;;;;;5045212;28;20029;-71
2022/03/16 01:26:18;;;;;;;21.70;8.30;;;7.20;99.90;;;;;;5045439;28;20026;-70
2022/03/16 01:28:43;;;;;;;24.70;9.95;;;7.20;99.90;;;;;;5045172;28;20034;-73
2022/03/16 01:31:09;;;;;;;28.77;11.10;;;7.20;99.90;;;;;;5045475;28;20071;-70
2022/03/16 01:33:34;;;;;;;25.42;9.85;;;7.10;99.90;;;;;;5045610;28;20048;-69
2022/03/16 01:36:00;;;;;;;33.42;10.77;;;7.10;99.90;;;;;;5044955;28;20018;-70
2022/03/16 01:38:26;;;;;;;23.45;10.65;;;7.10;99.90;;;;;;5045337;28;20025;-70
2022/03/16 01:40:51;;;;;;;38.42;10.90;;;7.10;99.90;;;;;;5045208;28;20034;-70
2022/03/16 01:43:17;;;;;;;33.67;11.23;;;7.00;99.90;;;;;;5044806;28;20040;-69
2022/03/16 01:45:50;;;;;;;27.23;10.48;;;7.00;99.90;;;;;;5045103;28;20053;-72
2022/03/16 01:48:17;;;;;;;22.53;11.10;;;7.00;99.90;;;;;;5045055;28;20029;-71
2022/03/16 01:50:43;;;;;;;27.50;10.93;;;7.00;99.90;;;;;;5044690;28;20092;-72
2022/03/16 01:53:11;;;;;;;41.80;11.65;;;6.90;99.90;;;;;;5027338;28;20060;-72
2022/03/16 01:55:40;;;;;;;26.85;9.75;;;6.90;99.90;;;;;;5044869;28;20456;-71
2022/03/16 01:58:10;;;;;;;26.13;10.95;;;6.90;99.90;;;;;;5044319;28;20026;-71
2022/03/16 02:00:37;;;;;;;27.17;11.02;;;6.80;99.90;;;;;;5045316;28;20395;-71
2022/03/16 02:03:02;;;;;;;25.92;10.55;;;6.80;99.90;;;;;;5044336;28;20021;-71
2022/03/16 02:05:29;;;;;;;28.48;10.88;;;6.70;99.90;;;;;;5044624;28;20043;-69
2022/03/16 02:07:54;;;;;;;32.35;12.82;;;6.70;99.90;;;;;;5044805;28;20030;-72
2022/03/16 02:10:21;;;;;;;24.38;10.73;;;6.70;99.90;;;;;;5044731;28;20106;-70
2022/03/16 02:12:49;;;;;;;39.20;12.77;;;6.60;99.90;;;;;;5044467;28;20029;-73
2022/03/16 02:15:16;;;;;;;41.35;11.13;;;6.60;99.90;;;;;;5044659;28;20021;-71
2022/03/16 02:17:42;;;;;;;26.95;10.80;;;6.60;99.90;;;;;;5044574;28;20029;-71
2022/03/16 02:20:09;;;;;;;39.38;13.07;;;6.60;99.90;;;;;;5044247;28;20037;-70
2022/03/16 02:22:36;;;;;;;23.83;10.65;;;6.50;99.90;;;;;;5031242;28;20033;-70
2022/03/16 02:25:04;;;;;;;24.85;10.32;;;6.50;99.90;;;;;;5041511;28;20025;-72
2022/03/16 02:27:29;;;;;;;29.65;11.43;;;6.40;99.90;;;;;;5044696;28;20080;-71
2022/03/16 02:29:55;;;;;;;26.30;10.98;;;6.30;99.90;;;;;;5044523;28;20025;-70
2022/03/16 02:32:21;;;;;;;31.30;11.57;;;6.30;99.90;;;;;;5044203;28;20051;-71
2022/03/16 02:34:46;;;;;;;35.42;11.55;;;6.30;99.90;;;;;;5044886;28;20029;-72
2022/03/16 02:37:13;;;;;;;34.25;13.27;;;6.30;99.90;;;;;;5043857;28;20029;-70
2022/03/16 02:39:39;;;;;;;25.52;10.30;;;6.30;99.90;;;;;;5035589;28;20053;-72
2022/03/16 02:42:05;;;;;;;29.15;12.38;;;6.20;99.90;;;;;;5043767;28;20355;-73
2022/03/16 02:44:31;;;;;;;30.30;12.27;;;6.20;99.90;;;;;;5043937;28;20026;-71
2022/03/16 02:46:56;;;;;;;35.45;12.88;;;6.20;99.90;;;;;;5044112;28;20059;-70
2022/03/16 02:49:22;;;;;;;28.02;11.60;;;6.20;99.90;;;;;;5044743;28;20033;-71
2022/03/16 02:51:47;;;;;;;43.60;11.23;;;6.20;99.90;;;;;;5043939;28;20037;-71
2022/03/16 02:54:14;;;;;;;24.90;10.63;;;6.30;99.90;;;;;;5044453;28;20029;-71
2022/03/16 02:56:39;;;;;;;28.15;12.20;;;6.20;99.90;;;;;;5044568;28;20425;-69
2022/03/16 02:59:05;;;;;;;29.05;12.35;;;6.20;99.90;;;;;;5044261;28;20037;-71
2022/03/16 03:01:31;;;;;;;33.13;12.15;;;6.20;99.90;;;;;;5044195;28;20022;-71
2022/03/16 03:03:56;;;;;;;27.65;12.07;;;6.20;99.90;;;;;;5044234;28;20057;-71
2022/03/16 03:06:22;;;;;;;35.53;12.65;;;6.20;99.90;;;;;;5044269;28;20026;-72
2022/03/16 03:08:48;;;;;;;41.88;12.57;;;6.20;99.90;;;;;;5028294;28;20029;-73
2022/03/16 03:11:15;;;;;;;25.42;10.85;;;6.10;99.90;;;;;;5047748;28;20040;-70
2022/03/16 03:13:41;;;;;;;24.10;10.50;;;6.00;99.90;;;;;;5048061;28;20030;-71
2022/03/16 03:16:06;;;;;;;28.88;11.02;;;6.00;99.90;;;;;;5048136;28;20033;-70
2022/03/16 03:18:35;;;;;;;35.97;11.63;;;6.00;99.90;;;;;;5046336;28;20073;-73
2022/03/16 03:21:01;;;;;;;21.00;9.15;;;5.90;99.90;;;;;;5035122;28;20030;-71
2022/03/16 03:23:27;;;;;;;30.55;11.32;;;5.90;99.90;;;;;;5028550;28;20625;-73
2022/03/16 03:25:53;;;;;;;30.88;11.20;;;5.90;99.90;;;;;;5047179;28;20022;-71
2022/03/16 03:28:18;;;;;;;28.23;11.70;;;5.80;99.90;;;;;;5047822;28;20048;-70
2022/03/16 03:30:44;;;;;;;29.65;10.55;;;5.90;99.90;;;;;;5047269;28;20045;-72
2022/03/16 03:33:10;;;;;;;32.88;11.40;;;5.80;99.90;;;;;;5029536;28;20033;-69
2022/03/16 03:35:35;;;;;;;27.80;10.25;;;5.80;99.90;;;;;;5047816;28;20076;-71
2022/03/16 03:38:01;;;;;;;23.58;10.02;;;5.70;99.90;;;;;;5047470;28;20051;-71
2022/03/16 03:40:27;;;;;;;24.13;11.27;;;5.80;99.90;;;;;;5047285;28;20075;-70
2022/03/16 03:42:52;;;;;;;32.85;10.60;;;5.80;99.90;;;;;;5037809;28;20049;-73
2022/03/16 03:45:18;;;;;;;29.08;11.52;;;5.80;99.90;;;;;;5026017;28;20082;-70
2022/03/16 03:47:44;;;;;;;23.92;11.48;;;5.70;99.90;;;;;;5027581;28;20061;-72
2022/03/16 03:50:11;;;;;;;38.70;12.68;;;5.80;99.90;;;;;;5027818;28;20053;-72
2022/03/16 03:52:37;;;;;;;33.67;13.93;;;5.80;99.90;;;;;;5035894;28;20129;-70
2022/03/16 03:55:04;;;;;;;28.05;11.52;;;5.70;99.90;;;;;;5046999;28;20030;-70
2022/03/16 03:57:29;;;;;;;31.15;11.23;;;5.70;99.90;;;;;;5047314;28;20056;-72
2022/03/16 03:59:55;;;;;;;31.70;11.50;;;5.70;99.90;;;;;;5046853;28;20030;-72
2022/03/16 04:02:21;;;;;;;27.83;11.43;;;5.70;99.90;;;;;;5046996;28;20029;-72
2022/03/16 04:04:47;;;;;;;22.52;11.23;;;5.60;99.90;;;;;;5047098;28;20029;-70
2022/03/16 04:07:13;;;;;;;19.80;9.82;;;5.60;99.90;;;;;;5046420;28;20029;-71
2022/03/16 04:09:39;;;;;;;27.33;11.82;;;5.60;99.90;;;;;;5029279;28;20032;-71
2022/03/16 04:12:05;;;;;;;30.45;11.38;;;5.60;99.90;;;;;;5046867;28;20029;-70
2022/03/16 04:14:31;;;;;;;28.50;10.40;;;5.60;99.90;;;;;;5046718;28;20030;-71
2022/03/16 04:16:56;;;;;;;29.15;10.50;;;5.60;99.90;;;;;;5046847;28;20121;-70
2022/03/16 04:19:22;;;;;;;35.85;10.75;;;5.60;99.90;;;;;;5028998;28;20021;-72
2022/03/16 04:21:53;;;;;;;25.48;11.65;;;5.60;99.90;;;;;;5046202;28;20025;-73
2022/03/16 04:24:18;;;;;;;30.38;10.73;;;5.50;99.90;;;;;;5046520;28;20089;-71
2022/03/16 04:26:45;;;;;;;38.50;12.00;;;5.60;99.90;;;;;;5046836;28;20029;-72
2022/03/16 04:29:11;;;;;;;25.80;11.88;;;5.50;99.90;;;;;;5046271;28;20053;-73
2022/03/16 04:31:36;;;;;;;28.20;10.63;;;5.50;99.90;;;;;;5046694;28;20037;-72
2022/03/16 04:34:02;;;;;;;28.85;12.55;;;5.50;99.90;;;;;;5046521;28;20104;-72
2022/03/16 04:36:29;;;;;;;29.60;11.57;;;5.50;99.90;;;;;;5028345;28;20136;-70
2022/03/16 04:38:55;;;;;;;35.47;11.05;;;5.60;99.90;;;;;;5046512;28;20029;-70
2022/03/16 04:41:21;;;;;;;28.98;10.70;;;5.40;99.90;;;;;;5046471;28;20028;-74
2022/03/16 04:43:47;;;;;;;29.88;10.70;;;5.40;99.90;;;;;;5045887;28;20029;-72
2022/03/16 04:46:12;;;;;;;25.40;10.98;;;5.40;99.90;;;;;;5045981;28;20068;-71
2022/03/16 04:48:38;;;;;;;20.45;9.82;;;5.40;99.90;;;;;;5041150;28;20508;-72
2022/03/16 04:51:05;;;;;;;29.30;10.90;;;5.40;99.90;;;;;;5026013;28;20128;-71
2022/03/16 04:53:31;;;;;;;25.48;10.02;;;5.30;99.90;;;;;;5026452;28;20034;-71
2022/03/16 04:55:57;;;;;;;23.05;11.27;;;5.30;99.90;;;;;;5028294;28;20040;-70
2022/03/16 04:58:23;;;;;;;27.45;8.77;;;5.30;99.90;;;;;;5027668;28;20022;-71
2022/03/16 05:00:48;;;;;;;27.35;10.15;;;5.30;99.90;;;;;;5046022;28;20044;-70
2022/03/16 05:03:20;;;;;;;28.30;10.77;;;5.30;99.90;;;;;;5045800;28;20022;-73
2022/03/16 05:05:47;;;;;;;31.48;11.40;;;5.30;99.90;;;;;;5046013;28;20121;-71
2022/03/16 05:08:12;;;;;;;28.98;9.73;;;5.30;99.90;;;;;;5046126;28;20421;-70
2022/03/16 05:10:39;;;;;;;24.80;10.02;;;5.30;99.90;;;;;;5045828;28;20041;-72
2022/03/16 05:13:05;;;;;;;28.30;11.25;;;5.30;99.90;;;;;;5045833;28;20039;-70
2022/03/16 05:15:31;;;;;;;24.02;10.52;;;5.30;99.90;;;;;;5045876;28;20045;-71
2022/03/16 05:17:56;;;;;;;32.85;9.93;;;5.30;99.90;;;;;;5041073;28;20034;-70
2022/03/16 05:20:22;;;;;;;24.67;10.93;;;5.40;99.90;;;;;;5025987;28;20026;-70
2022/03/16 05:22:51;;;;;;;25.85;10.88;;;5.40;99.90;;;;;;5025990;28;20033;-71
2022/03/16 05:25:30;;;;;;;19.63;8.60;;;5.30;99.90;;;;;;5025225;28;20034;-71
2022/03/16 05:27:56;;;;;;;23.80;9.23;;;5.30;99.90;;;;;;5025462;28;20037;-71
2022/03/16 05:30:26;;;;;;;24.08;9.85;;;5.30;99.90;;;;;;5025232;28;20080;-71
2022/03/16 05:33:00;;;;;;;39.50;10.98;;;5.40;99.90;;;;;;5025093;28;20033;-71
2022/03/16 05:35:26;;;;;;;19.95;9.70;;;5.30;99.90;;;;;;5025651;28;20022;-70
2022/03/16 05:37:52;;;;;;;28.20;11.13;;;5.30;99.90;;;;;;5025350;28;20040;-71
2022/03/16 05:40:18;;;;;;;45.80;11.55;;;5.30;99.90;;;;;;5025293;28;20030;-72
2022/03/16 05:42:44;;;;;;;27.45;9.50;;;5.40;99.90;;;;;;5025652;28;20398;-72
2022/03/16 05:45:10;;;;;;;34.97;9.15;;;5.40;99.90;;;;;;5025242;28;20036;-72
2022/03/16 05:47:37;;;;;;;28.20;9.88;;;5.30;99.90;;;;;;5025317;28;20081;-71
2022/03/16 05:50:03;;;;;;;25.88;9.85;;;5.30;99.90;;;;;;5025343;28;20148;-73
2022/03/16 05:52:31;;;;;;;22.90;9.93;;;5.40;99.90;;;;;;5025229;28;20037;-70
2022/03/16 05:54:58;;;;;;;25.05;10.57;;;5.30;99.90;;;;;;5025141;28;20493;-71
2022/03/16 05:57:24;;;;;;;24.70;9.80;;;5.40;99.90;;;;;;5025282;28;20113;-73
2022/03/16 05:59:59;;;;;;;21.88;9.85;;;5.40;99.90;;;;;;5007233;28;20041;-72
2022/03/16 06:02:24;;;;;;;27.45;10.75;;;5.50;99.90;;;;;;5024734;28;20389;-69
2022/03/16 06:04:50;;;;;;;18.10;8.68;;;5.50;99.90;;;;;;5024957;28;20049;-73
2022/03/16 06:07:16;;;;;;;24.92;9.20;;;5.50;99.90;;;;;;5024785;28;20119;-72
2022/03/16 06:09:41;;;;;;;29.45;11.43;;;5.60;99.90;;;;;;5027791;28;20029;-71
2022/03/16 06:12:08;;;;;;;27.05;10.45;;;5.60;99.90;;;;;;5025079;28;20038;-70
2022/03/16 06:14:34;;;;;;;20.25;9.32;;;5.70;99.90;;;;;;5024724;28;20068;-70
2022/03/16 06:16:59;;;;;;;23.75;10.52;;;5.80;99.90;;;;;;5024959;28;20030;-70
2022/03/16 06:19:25;;;;;;;20.42;10.07;;;5.70;99.90;;;;;;5035085;28;20033;-71
2022/03/16 06:21:50;;;;;;;18.65;9.23;;;5.70;99.90;;;;;;5044337;28;20097;-71
2022/03/16 06:24:16;;;;;;;27.73;10.68;;;5.70;99.90;;;;;;5044880;28;20032;-72
2022/03/16 06:26:43;;;;;;;24.27;10.05;;;5.80;99.90;;;;;;5044684;28;20040;-72
2022/03/16 06:29:09;;;;;;;19.80;8.85;;;5.80;99.90;;;;;;5044545;28;20056;-70
2022/03/16 06:31:35;;;;;;;20.50;10.18;;;5.80;99.90;;;;;;5044810;28;20101;-70
2022/03/16 06:34:01;;;;;;;38.95;12.02;;;5.80;99.90;;;;;;5042684;28;20036;-72
2022/03/16 06:36:27;;;;;;;33.55;11.27;;;5.90;99.90;;;;;;5026192;28;20030;-72
2022/03/16 06:38:56;;;;;;;22.15;11.20;;;5.90;99.90;;;;;;5025367;28;20036;-71
2022/03/16 06:41:22;;;;;;;39.63;11.00;;;5.90;99.90;;;;;;5044505;28;20089;-72
2022/03/16 06:43:48;;;;;;;16.42;8.82;;;5.90;99.90;;;;;;5046290;28;20030;-71
2022/03/16 06:46:14;;;;;;;24.23;10.13;;;5.90;99.90;;;;;;5048764;28;20057;-71
2022/03/16 06:48:40;;;;;;;28.77;10.90;;;6.00;99.90;;;;;;5048590;28;20021;-71
2022/03/16 06:51:06;;;;;;;26.50;9.15;;;5.90;99.90;;;;;;5048598;28;20128;-71
2022/03/16 06:53:32;;;;;;;27.25;10.95;;;5.90;99.90;;;;;;5048439;28;20017;-71
2022/03/16 06:55:58;;;;;;;29.40;9.65;;;5.90;99.90;;;;;;5047929;28;20033;-72
2022/03/16 06:58:23;;;;;;;21.00;9.60;;;5.90;99.90;;;;;;5030321;28;20064;-70
2022/03/16 07:00:49;;;;;;;23.48;9.40;;;5.90;99.90;;;;;;5048564;28;20026;-71
2022/03/16 07:03:15;;;;;;;25.35;9.02;;;5.90;99.90;;;;;;5047906;28;20037;-71
2022/03/16 07:05:42;;;;;;;24.15;9.80;;;5.90;99.90;;;;;;5048228;28;20030;-73
2022/03/16 07:08:10;;;;;;;20.42;8.65;;;5.90;99.90;;;;;;5046105;28;20037;-71
2022/03/16 07:10:38;;;;;;;20.20;9.18;;;5.90;99.90;;;;;;5047794;28;20048;-72
2022/03/16 07:13:04;;;;;;;18.60;8.55;;;6.00;99.90;;;;;;5043658;28;20037;-72
2022/03/16 07:15:32;;;;;;;19.65;9.15;;;6.00;99.90;;;;;;5028335;28;20095;-71
2022/03/16 07:17:57;;;;;;;26.10;9.38;;;6.10;99.90;;;;;;5027415;28;20060;-72
2022/03/16 07:20:23;;;;;;;22.92;10.23;;;6.10;99.90;;;;;;5047888;28;20718;-72
2022/03/16 07:23:10;;;;;;;21.27;8.98;;;6.10;99.90;;;;;;5048175;28;20475;-72
2022/03/16 07:25:38;;;;;;;16.58;8.63;;;6.10;99.90;;;;;;5047477;28;20037;-72
2022/03/16 07:28:04;;;;;;;19.33;9.30;;;6.20;99.90;;;;;;5048041;28;20061;-72
2022/03/16 07:30:30;;;;;;;15.98;7.80;;;6.10;99.90;;;;;;5029630;28;20084;-72
2022/03/16 07:32:59;;;;;;;25.65;9.45;;;6.10;99.90;;;;;;5047511;28;20470;-72
2022/03/16 07:35:26;;;;;;;26.67;8.82;;;6.20;99.90;;;;;;5040869;28;20033;-71
2022/03/16 07:37:56;;;;;;;23.75;8.98;;;6.20;99.90;;;;;;5027501;28;20049;-72
2022/03/16 07:40:23;;;;;;;25.95;9.70;;;6.30;99.90;;;;;;5031040;28;20030;-73
2022/03/16 07:42:50;;;;;;;20.70;7.72;;;6.30;99.90;;;;;;5036296;28;20037;-70
2022/03/16 07:45:18;;;;;;;16.77;7.65;;;6.30;99.90;;;;;;5040477;28;20586;-74
2022/03/16 07:47:50;;;;;;;23.92;9.07;;;6.50;99.90;;;;;;5045651;28;20022;-73
2022/03/16 07:50:17;;;;;;;24.98;8.27;;;6.60;99.90;;;;;;5041979;28;20033;-72
2022/03/16 07:52:43;;;;;;;19.98;8.55;;;6.60;99.90;;;;;;5037880;28;20041;-74
2022/03/16 07:55:10;;;;;;;16.83;7.65;;;6.70;99.90;;;;;;5029505;28;20029;-72
2022/03/16 07:57:37;;;;;;;17.25;7.85;;;6.70;99.90;;;;;;5046750;28;20034;-72
2022/03/16 08:00:08;;;;;;;14.05;6.60;;;6.80;99.90;;;;;;5038913;28;20033;-71
2022/03/16 08:02:34;;;;;;;21.27;7.45;;;6.80;99.90;;;;;;5042680;28;20065;-72
2022/03/16 08:05:00;;;;;;;15.75;8.18;;;6.90;99.90;;;;;;5045583;28;20112;-72
2022/03/16 08:07:26;;;;;;;17.80;8.13;;;6.90;99.90;;;;;;5028969;28;20093;-71
2022/03/16 08:09:52;;;;;;;15.88;6.25;;;7.00;99.90;;;;;;5034286;28;20026;-71
2022/03/16 08:12:18;;;;;;;17.65;8.13;;;7.10;99.90;;;;;;5035858;28;20053;-71
2022/03/16 08:14:43;;;;;;;25.38;8.48;;;7.20;99.90;;;;;;5026949;28;20049;-72
2022/03/16 08:17:09;;;;;;;19.27;8.07;;;7.30;99.90;;;;;;5027054;28;20109;-72
2022/03/16 08:19:38;;;;;;;15.48;7.57;;;7.30;99.90;;;;;;5030257;28;20025;-72
2022/03/16 08:22:04;;;;;;;19.85;8.30;;;7.40;99.90;;;;;;5040612;28;20041;-73
2022/03/16 08:24:30;;;;;;;22.65;6.70;;;7.50;99.90;;;;;;5046580;28;20034;-71
2022/03/16 08:26:55;;;;;;;14.00;6.95;;;7.50;99.90;;;;;;5046207;28;20022;-71
2022/03/16 08:29:21;;;;;;;19.65;7.13;;;7.50;99.90;;;;;;5041014;28;20029;-73
2022/03/16 08:31:46;;;;;;;21.38;7.40;;;7.60;99.90;;;;;;5033722;28;20033;-72
2022/03/16 08:34:12;;;;;;;17.45;7.78;;;7.60;99.90;;;;;;5037945;28;20115;-71
2022/03/16 08:36:39;;;;;;;12.98;7.22;;;7.70;99.90;;;;;;5032382;28;20565;-72
2022/03/16 08:39:05;;;;;;;13.27;6.45;;;7.70;99.90;;;;;;5031738;28;20026;-72
2022/03/16 08:41:35;;;;;;;13.35;6.00;;;7.80;99.90;;;;;;5038911;28;20028;-71
2022/03/16 08:44:02;;;;;;;25.02;6.95;;;7.90;99.90;;;;;;5046142;28;20014;-70
2022/03/16 08:46:28;;;;;;;16.95;5.97;;;7.90;99.90;;;;;;5045862;28;20099;-71
2022/03/16 08:48:53;;;;;;;14.52;6.75;;;7.90;99.90;;;;;;5045885;28;20040;-71
2022/03/16 08:51:19;;;;;;;13.98;6.68;;;7.90;99.90;;;;;;5026789;28;20097;-73
2022/03/16 08:53:45;;;;;;;10.93;6.45;;;8.00;99.90;;;;;;5045924;28;20026;-72
2022/03/16 08:56:12;;;;;;;15.80;6.90;;;8.00;99.90;;;;;;5037921;28;20077;-71
2022/03/16 08:58:38;;;;;;;22.13;6.55;;;7.90;99.90;;;;;;5036811;28;20540;-72
2022/03/16 09:01:05;;;;;;;17.67;6.38;;;7.90;99.90;;;;;;5042486;28;20064;-71
2022/03/16 09:03:31;;;;;;;19.40;8.15;;;7.90;99.90;;;;;;5042764;28;20533;-71
2022/03/16 09:05:57;;;;;;;16.25;7.13;;;8.00;99.90;;;;;;5044292;28;20128;-71
2022/03/16 09:08:32;;;;;;;16.38;6.75;;;8.00;99.90;;;;;;5039347;28;20021;-71
2022/03/16 09:10:57;;;;;;;20.70;6.65;;;8.00;99.90;;;;;;5025368;28;20425;-73
2022/03/16 09:13:23;;;;;;;14.70;6.72;;;8.10;99.90;;;;;;5033388;28;20037;-73
2022/03/16 09:15:51;;;;;;;12.55;6.13;;;8.20;99.90;;;;;;5038735;28;20022;-71
2022/03/16 09:18:21;;;;;;;18.05;7.30;;;8.20;99.90;;;;;;5027997;28;20109;-72
2022/03/16 09:20:47;;;;;;;15.35;5.85;;;8.30;99.90;;;;;;5020636;28;20028;-71
2022/03/16 09:23:13;;;;;;;15.15;6.20;;;8.40;99.90;;;;;;5027267;28;20025;-73
2022/03/16 09:25:41;;;;;;;14.88;6.05;;;8.50;99.90;;;;;;5044528;28;20068;-72
2022/03/16 09:28:08;;;;;;;19.85;5.68;;;8.60;99.90;;;;;;5042521;28;20080;-73
2022/03/16 09:30:37;;;;;;;13.25;5.63;;;8.70;99.90;;;;;;5043787;28;20037;-72
2022/03/16 09:33:05;;;;;;;12.32;5.95;;;8.80;99.90;;;;;;5035034;28;20021;-71
2022/03/16 09:35:33;;;;;;;18.67;6.10;;;8.90;99.90;;;;;;5028785;28;20552;-73
2022/03/16 09:37:59;;;;;;;18.27;6.43;;;8.90;99.90;;;;;;5024904;28;20049;-71
2022/03/16 09:40:25;;;;;;;14.52;5.18;;;9.00;99.90;;;;;;5025079;28;20037;-70
2022/03/16 09:42:52;;;;;;;23.70;6.13;;;9.10;99.90;;;;;;5042856;28;20037;-71
2022/03/16 09:45:21;;;;;;;15.60;5.93;;;9.20;99.90;;;;;;5038032;28;20181;-72
2022/03/16 09:47:49;;;;;;;12.55;5.82;;;9.30;99.90;;;;;;5040219;28;20026;-74
2022/03/16 09:50:19;;;;;;;13.73;5.90;;;9.30;99.90;;;;;;5031873;28;20088;-71
2022/03/16 09:52:47;;;;;;;19.60;6.80;;;9.30;99.90;;;;;;5006963;28;20026;-74
2022/03/16 09:55:14;;;;;;;14.15;6.40;;;9.40;99.90;;;;;;5024626;28;20030;-73
2022/03/16 09:57:41;;;;;;;18.95;6.78;;;9.50;99.90;;;;;;5034840;28;20048;-74
2022/03/16 10:00:14;;;;;;;10.75;4.82;;;9.60;99.90;;;;;;5040417;28;20534;-72
2022/03/16 10:02:43;;;;;;;10.85;4.57;;;9.80;99.90;;;;;;5033705;28;20036;-71
2022/03/16 10:05:10;;;;;;;13.07;5.50;;;10.00;99.90;;;;;;5045255;28;20483;-71
2022/03/16 10:07:37;;;;;;;20.25;5.80;;;10.30;99.90;;;;;;5025580;28;20029;-70
2022/03/16 10:15:35;;;;;;;12.85;5.35;;;11.10;99.90;;;;;;5035541;28;20060;-72
2022/03/16 10:18:03;;;;;;;14.57;6.05;;;11.40;99.90;;;;;;5043916;28;20029;-71
2022/03/16 10:20:35;;;;;;;21.65;5.15;;;11.70;99.90;;;;;;5043640;28;20038;-73
2022/03/16 10:23:04;;;;;;;11.35;4.65;;;12.00;99.90;;;;;;5044678;28;20034;-72
2022/03/16 10:25:43;;;;;;;13.75;4.72;;;12.30;99.90;;;;;;5039889;28;20017;-74
2022/03/16 10:28:10;;;;;;;16.55;5.05;;;12.40;99.90;;;;;;5030636;28;20033;-71
2022/03/16 10:30:54;;;;;;;11.63;4.07;;;12.30;99.90;;;;;;5036166;28;20033;-71
2022/03/16 10:33:20;;;;;;;17.13;4.63;;;12.30;99.90;;;;;;5016339;28;20030;-73
2022/03/16 10:35:57;;;;;;;11.00;3.90;;;12.30;99.90;;;;;;5009293;28;20071;-72
2022/03/16 10:38:24;;;;;;;10.23;4.55;;;12.50;99.90;;;;;;5040748;28;20029;-72
2022/03/16 10:40:53;;;;;;;10.50;4.50;;;12.70;99.90;;;;;;5044220;28;20421;-72
2022/03/16 10:49:12;;;;;;;8.48;4.60;;;12.90;99.90;;;;;;5044755;28;20052;-72
2022/03/16 10:51:39;;;;;;;9.32;4.38;;;12.80;99.90;;;;;;5034134;28;20042;-71
2022/03/16 10:54:05;;;;;;;8.98;4.22;;;12.90;99.90;;;;;;5024408;28;20044;-71
2022/03/16 10:56:32;;;;;;;15.25;3.90;;;12.90;99.90;;;;;;5026322;28;20030;-73
2022/03/16 10:58:59;;;;;;;17.58;4.55;;;12.80;99.90;;;;;;5044032;28;20781;-73
2022/03/16 11:01:26;;;;;;;11.35;5.00;;;12.90;99.90;;;;;;5041850;28;20022;-73
2022/03/16 11:03:55;;;;;;;13.80;4.68;;;12.90;99.90;;;;;;5043593;28;20026;-74
2022/03/16 11:06:21;;;;;;;10.10;4.28;;;12.80;99.90;;;;;;5041229;28;20045;-73
2022/03/16 11:08:49;;;;;;;9.85;4.35;;;12.80;99.90;;;;;;5040333;28;20026;-71
2022/03/16 11:14:03;;;;;;;14.40;4.78;;;12.60;99.90;;;;;;5039554;28;20041;-71
2022/03/16 11:16:30;;;;;;;15.85;6.13;;;12.50;99.90;;;;;;5039640;28;20085;-73
2022/03/16 11:19:01;;;;;;;17.10;5.53;;;12.40;99.90;;;;;;5022799;28;20018;-75
2022/03/16 11:21:52;;;;;;;10.27;4.47;;;12.30;99.90;;;;;;5041652;28;20021;-73
2022/03/16 11:24:24;;;;;;;17.38;6.10;;;12.30;99.90;;;;;;5042438;28;20045;-74
2022/03/16 11:27:22;;;;;;;13.32;5.30;;;12.40;99.90;;;;;;5032852;28;20057;-73
2022/03/16 11:30:27;;;;;;;16.45;5.82;;;12.80;99.90;;;;;;5044490;28;20036;-73
2022/03/16 11:33:02;;;;;;;12.27;4.60;;;13.50;99.90;;;;;;5032908;28;20037;-73
2022/03/16 11:35:30;;;;;;;13.43;5.07;;;14.20;99.90;;;;;;5012736;28;20114;-74
2022/03/16 11:38:02;;;;;;;17.10;4.70;;;14.70;99.90;;;;;;5046460;28;20064;-73
2022/03/16 11:40:30;;;;;;;14.45;5.45;;;15.10;99.90;;;;;;5042767;28;20386;-72
2022/03/16 11:43:04;;;;;;;12.00;4.50;;;15.40;99.90;;;;;;5031414;28;20034;-72
2022/03/16 11:45:30;;;;;;;;;;;15.90;99.90;;;;;;5032463;28;20037;-75
2022/03/16 11:47:56;;;;;;;14.40;4.93;;;16.20;99.90;;;;;;5031726;28;19917;-74
2022/03/16 11:50:22;;;;;;;10.40;4.57;;;16.40;99.90;;;;;;5030799;28;20037;-72
2022/03/16 11:53:04;;;;;;;16.42;4.95;;;16.70;99.90;;;;;;5036990;28;20444;-73
2022/03/16 11:55:39;;;;;;;11.23;5.50;;;16.90;99.90;;;;;;5045726;28;20029;-73
2022/03/16 11:58:25;;;;;;;16.52;6.38;;;17.00;99.90;;;;;;5046091;28;20044;-74
2022/03/16 12:01:26;;;;;;;14.27;5.53;;;17.20;99.90;;;;;;5045491;28;20017;-72
2022/03/16 12:04:11;;;;;;;12.88;4.10;;;17.30;99.90;;;;;;5045687;28;20044;-73
2022/03/16 12:07:02;;;;;;;13.95;6.03;;;17.30;99.90;;;;;;5028324;28;20075;-73
2022/03/16 12:09:49;;;;;;;15.07;5.55;;;17.10;99.90;;;;;;5044785;28;20067;-74
2022/03/16 12:15:34;;;;;;;12.18;5.82;;;17.10;99.90;;;;;;5046485;28;20051;-72
2022/03/16 12:18:00;;;;;;;15.27;5.68;;;17.00;99.90;;;;;;5042206;28;20026;-72
2022/03/16 12:20:36;;;;;;;12.05;4.55;;;17.10;99.90;;;;;;5030877;28;20470;-75
2022/03/16 12:23:09;;;;;;;12.60;4.82;;;17.20;99.90;;;;;;5025285;28;20097;-73
2022/03/16 12:25:40;;;;;;;10.90;4.35;;;17.10;99.90;;;;;;5031883;28;20021;-73
2022/03/16 12:31:06;;;;;;;12.55;5.25;;;17.30;99.90;;;;;;5044676;28;20052;-74
2022/03/16 12:33:42;;;;;;;18.63;5.18;;;17.40;99.90;;;;;;5044277;28;20025;-74
2022/03/16 12:36:15;;;;;;;15.52;4.97;;;17.40;99.90;;;;;;5044918;28;20143;-72
2022/03/16 12:38:46;;;;;;;10.65;3.83;;;17.70;99.90;;;;;;5044280;28;20116;-72
2022/03/16 12:44:02;;;;;;;10.73;4.03;;;17.70;99.90;;;;;;5025745;28;20061;-74
2022/03/16 12:46:40;;;;;;;10.73;4.10;;;17.70;99.90;;;;;;5024839;28;20092;-72
2022/03/16 12:49:11;;;;;;;8.13;4.07;;;17.50;99.90;;;;;;5040685;28;20082;-72
2022/03/16 12:51:45;;;;;;;8.13;3.65;;;17.70;99.90;;;;;;5036514;28;20073;-72
2022/03/16 12:54:23;;;;;;;9.73;3.22;;;17.60;99.90;;;;;;5029858;28;20483;-73
2022/03/16 12:56:51;;;;;;;9.40;4.35;;;17.50;99.90;;;;;;5029495;28;20059;-73
2022/03/16 12:59:48;;;;;;;9.82;4.13;;;17.50;99.90;;;;;;5044057;28;20045;-73
2022/03/16 13:02:22;;;;;;;10.75;4.43;;;17.30;99.90;;;;;;5040607;28;20049;-72
2022/03/16 13:04:52;;;;;;;9.13;3.38;;;17.20;99.90;;;;;;5027458;28;20374;-73
2022/03/16 13:07:19;;;;;;;10.85;3.95;;;17.30;99.90;;;;;;5024608;28;20034;-74